Time;durP1;ratioP1;P1;durP2;ratioP2;P2;SDS_P1;SDS_P2;PMS_P1;PMS_P2;Temp;Humidity;BMP_temperature;BMP_pressure;BME280_temperature;BME280_humidity;BME280_pressure;Samples;Min_cycle;Max_cycle;Signal;HPM_P1;HPM_P2
2023/05/02 00:01:50;;;;;;;22.95;10.15;;;10.30;99.90;;;;;;5030714;28;20076;-63
2023/05/02 00:04:16;;;;;;;21.02;8.60;;;10.30;99.90;;;;;;5065641;28;20072;-61
2023/05/02 00:06:45;;;;;;;23.63;9.27;;;10.20;99.90;;;;;;5049090;28;20095;-58
2023/05/02 00:09:11;;;;;;;16.55;8.35;;;10.10;99.90;;;;;;5066987;28;20045;-61
2023/05/02 00:11:36;;;;;;;21.15;8.15;;;10.00;99.90;;;;;;5065184;28;20044;-62
2023/05/02 00:14:02;;;;;;;19.75;9.02;;;9.90;99.90;;;;;;5065703;28;20047;-62
2023/05/02 00:16:28;;;;;;;16.52;8.00;;;9.90;99.90;;;;;;5068677;28;20520;-63
2023/05/02 00:18:54;;;;;;;12.73;6.15;;;9.80;99.90;;;;;;5065954;28;20045;-62
2023/05/02 00:21:19;;;;;;;20.83;6.95;;;9.80;99.90;;;;;;5047689;28;20115;-64
2023/05/02 00:23:45;;;;;;;16.00;6.38;;;9.70;99.90;;;;;;5066413;28;20116;-61
2023/05/02 00:26:11;;;;;;;19.42;6.18;;;9.70;99.90;;;;;;5078384;28;20100;-62
2023/05/02 00:28:36;;;;;;;18.52;6.65;;;9.60;99.90;;;;;;5068531;28;20040;-62
2023/05/02 00:31:03;;;;;;;19.30;6.68;;;9.60;99.90;;;;;;5055018;28;20028;-62
2023/05/02 00:33:29;;;;;;;18.30;7.30;;;9.50;99.90;;;;;;5065726;28;20369;-63
2023/05/02 00:35:55;;;;;;;21.85;7.85;;;9.50;99.90;;;;;;5064785;28;20149;-63
2023/05/02 00:38:20;;;;;;;25.77;8.52;;;9.50;99.90;;;;;;5066355;28;20094;-64
2023/05/02 00:40:49;;;;;;;24.50;7.47;;;9.50;99.90;;;;;;5064076;28;20127;-65
2023/05/02 00:43:16;;;;;;;22.98;7.50;;;9.50;99.90;;;;;;5065640;28;20049;-63
2023/05/02 00:45:42;;;;;;;20.10;7.43;;;9.50;99.90;;;;;;5046803;28;20059;-63
2023/05/02 00:48:09;;;;;;;20.25;7.18;;;9.50;99.90;;;;;;5063616;28;20040;-65
2023/05/02 00:50:37;;;;;;;24.27;7.32;;;9.50;99.90;;;;;;5074922;28;20127;-62
2023/05/02 00:53:04;;;;;;;16.70;6.35;;;9.50;99.90;;;;;;5085900;28;20224;-62
2023/05/02 00:55:32;;;;;;;24.52;7.18;;;9.50;99.90;;;;;;5057494;28;20082;-62
2023/05/02 00:57:59;;;;;;;17.70;7.32;;;9.50;99.90;;;;;;5064201;28;20059;-63
2023/05/02 01:00:42;;;;;;;18.52;6.93;;;9.40;99.90;;;;;;5068855;28;20515;-62
2023/05/02 01:03:41;;;;;;;15.70;7.15;;;9.40;99.90;;;;;;5063698;28;20040;-63
2023/05/02 01:06:19;;;;;;;19.13;7.10;;;9.40;99.90;;;;;;5046574;28;20082;-64
2023/05/02 01:09:01;;;;;;;22.52;6.78;;;9.40;99.90;;;;;;5064479;28;20487;-63
2023/05/02 01:12:09;;;;;;;18.02;6.10;;;9.50;99.90;;;;;;5046722;28;20116;-65
2023/05/02 01:14:41;;;;;;;17.67;6.15;;;9.40;99.90;;;;;;5063883;28;20471;-64
2023/05/02 01:17:10;;;;;;;19.55;6.20;;;9.50;99.90;;;;;;5046189;28;20436;-62
2023/05/02 01:19:40;;;;;;;17.08;5.40;;;9.40;99.90;;;;;;5064453;28;20442;-63
2023/05/02 01:22:12;;;;;;;13.05;5.43;;;9.40;99.90;;;;;;5072315;28;20051;-63
2023/05/02 01:24:59;;;;;;;17.75;5.75;;;9.40;99.90;;;;;;5064691;28;20049;-63
2023/05/02 01:27:47;;;;;;;15.88;5.57;;;9.40;99.90;;;;;;5071465;28;20037;-62
2023/05/02 01:30:15;;;;;;;17.65;5.10;;;9.40;99.90;;;;;;5046646;28;20468;-61
2023/05/02 01:32:44;;;;;;;19.38;5.80;;;9.40;99.90;;;;;;5063068;28;20049;-63
2023/05/02 01:35:12;;;;;;;16.58;5.30;;;9.40;99.90;;;;;;5047128;28;20044;-64
2023/05/02 01:37:40;;;;;;;13.77;5.35;;;9.40;99.90;;;;;;5049263;28;20054;-63
2023/05/02 01:40:08;;;;;;;20.52;6.38;;;9.40;99.90;;;;;;5063563;28;20043;-64
2023/05/02 01:42:36;;;;;;;15.35;5.80;;;9.40;99.90;;;;;;5064669;28;20726;-62
2023/05/02 01:45:06;;;;;;;24.90;6.65;;;9.40;99.90;;;;;;5063734;28;20111;-63
2023/05/02 01:47:34;;;;;;;16.65;6.60;;;9.40;99.90;;;;;;5063715;28;20466;-63
2023/05/02 01:50:02;;;;;;;21.63;6.57;;;9.40;99.90;;;;;;5062574;28;20036;-61
2023/05/02 01:52:29;;;;;;;25.75;5.47;;;9.40;99.90;;;;;;5063644;28;20055;-63
2023/05/02 01:54:58;;;;;;;35.25;6.32;;;9.20;99.90;;;;;;5047082;28;20109;-62
2023/05/02 01:57:24;;;;;;;26.35;6.20;;;9.10;99.90;;;;;;5064898;28;20040;-61
2023/05/02 01:59:53;;;;;;;33.50;6.07;;;8.80;99.90;;;;;;5065334;28;20057;-61
2023/05/02 02:02:20;;;;;;;34.03;7.32;;;8.70;99.90;;;;;;5089467;28;20040;-63
2023/05/02 02:04:47;;;;;;;27.52;5.63;;;8.50;99.90;;;;;;5089025;28;20511;-61
2023/05/02 02:07:13;;;;;;;25.80;6.30;;;8.30;99.90;;;;;;5062894;28;20119;-61
2023/05/02 02:09:40;;;;;;;27.67;6.18;;;8.20;99.90;;;;;;5073557;28;20308;-62
2023/05/02 02:12:19;;;;;;;32.00;7.45;;;8.10;99.90;;;;;;5088305;28;20074;-61
2023/05/02 02:14:55;;;;;;;32.30;7.10;;;8.00;99.90;;;;;;5081804;28;20036;-60
2023/05/02 02:17:25;;;;;;;23.85;6.15;;;7.90;99.90;;;;;;5068022;28;20501;-62
2023/05/02 02:19:55;;;;;;;30.55;7.10;;;7.90;99.90;;;;;;5049728;28;20044;-61
2023/05/02 02:22:25;;;;;;;31.73;6.55;;;7.90;99.90;;;;;;5050528;28;20561;-62
2023/05/02 02:24:53;;;;;;;29.10;6.55;;;7.90;99.90;;;;;;5067930;28;20044;-62
2023/05/02 02:27:19;;;;;;;27.58;7.28;;;7.80;99.90;;;;;;5067151;28;20035;-62
2023/05/02 02:29:45;;;;;;;32.25;7.07;;;7.80;99.90;;;;;;5067339;28;20357;-61
2023/05/02 02:32:11;;;;;;;35.55;6.85;;;7.80;99.90;;;;;;5067919;28;20044;-62
2023/05/02 02:34:37;;;;;;;31.23;6.80;;;7.90;99.90;;;;;;5085165;28;20044;-61
2023/05/02 02:37:16;;;;;;;34.28;6.85;;;7.90;99.90;;;;;;5085995;28;20300;-61
2023/05/02 02:40:03;;;;;;;40.35;7.70;;;7.90;99.90;;;;;;5077855;28;20123;-60
2023/05/02 02:42:38;;;;;;;36.72;7.35;;;7.90;99.90;;;;;;5050083;28;20046;-61
2023/05/02 02:45:22;;;;;;;24.98;6.07;;;7.90;99.90;;;;;;5066919;28;20075;-61
2023/05/02 02:48:10;;;;;;;36.25;6.28;;;7.90;99.90;;;;;;5049797;28;20044;-62
2023/05/02 02:50:49;;;;;;;31.15;6.93;;;7.80;99.90;;;;;;5066317;28;20044;-59
2023/05/02 02:53:26;;;;;;;26.63;6.40;;;7.80;99.90;;;;;;5080705;28;20414;-61
2023/05/02 02:56:18;;;;;;;27.38;6.13;;;7.80;99.90;;;;;;5086887;28;20052;-61
2023/05/02 02:58:44;;;;;;;28.77;6.57;;;7.70;99.90;;;;;;5078532;28;20082;-62
2023/05/02 03:01:16;;;;;;;32.92;7.68;;;7.80;99.90;;;;;;5075939;28;20055;-62
2023/05/02 03:03:43;;;;;;;33.65;7.47;;;7.70;99.90;;;;;;5086108;28;20085;-61
2023/05/02 03:06:09;;;;;;;36.75;6.72;;;7.70;99.90;;;;;;5087034;28;20028;-60
2023/05/02 03:08:41;;;;;;;30.05;5.55;;;7.70;99.90;;;;;;5059979;28;20047;-63
2023/05/02 03:11:08;;;;;;;34.47;6.72;;;7.70;99.90;;;;;;5064516;28;20048;-60
2023/05/02 03:13:34;;;;;;;23.58;5.68;;;7.60;99.90;;;;;;5066472;28;20052;-61
2023/05/02 03:16:38;;;;;;;25.27;6.13;;;7.60;99.90;;;;;;5065032;28;20097;-60
2023/05/02 03:19:05;;;;;;;23.95;4.97;;;7.60;99.90;;;;;;5069263;28;20043;-62
2023/05/02 03:21:31;;;;;;;29.98;6.03;;;7.60;99.90;;;;;;5069603;28;20594;-61
2023/05/02 03:24:02;;;;;;;37.30;7.25;;;7.60;99.90;;;;;;5086809;28;20032;-62
2023/05/02 03:26:28;;;;;;;28.40;6.28;;;7.60;99.90;;;;;;5079289;28;20039;-64
2023/05/02 03:28:55;;;;;;;28.02;5.57;;;7.60;99.90;;;;;;5066142;28;20040;-61
2023/05/02 03:31:21;;;;;;;23.48;5.50;;;7.60;99.90;;;;;;5064729;28;20044;-61
2023/05/02 03:33:49;;;;;;;20.63;4.05;;;7.50;99.90;;;;;;5048739;28;20055;-63
2023/05/02 03:36:15;;;;;;;23.70;5.70;;;7.50;99.90;;;;;;5066916;28;20082;-62
2023/05/02 03:38:41;;;;;;;18.67;4.25;;;7.40;99.90;;;;;;5076349;28;20067;-60
2023/05/02 03:41:07;;;;;;;18.77;4.07;;;7.40;99.90;;;;;;5065358;28;20488;-60
2023/05/02 03:43:33;;;;;;;22.90;4.43;;;7.30;99.90;;;;;;5065639;28;20044;-60
2023/05/02 03:46:06;;;;;;;19.83;4.20;;;7.30;99.90;;;;;;5074094;28;20032;-60
2023/05/02 03:48:33;;;;;;;24.70;4.68;;;7.30;99.90;;;;;;5085401;28;20044;-62
2023/05/02 03:51:00;;;;;;;15.80;4.32;;;7.30;99.90;;;;;;5066357;28;20464;-61
2023/05/02 03:53:26;;;;;;;11.38;3.42;;;7.30;99.90;;;;;;5048869;28;20052;-60
2023/05/02 03:55:52;;;;;;;21.20;3.65;;;7.30;99.90;;;;;;5048894;28;20051;-61
2023/05/02 03:58:18;;;;;;;16.85;3.83;;;7.30;99.90;;;;;;5065511;28;20140;-64
2023/05/02 04:00:43;;;;;;;21.13;3.45;;;7.30;99.90;;;;;;5064067;28;20151;-64
2023/05/02 04:03:10;;;;;;;25.27;4.03;;;7.30;99.90;;;;;;5047550;28;20052;-63
2023/05/02 04:05:35;;;;;;;18.33;3.42;;;7.30;99.90;;;;;;5065478;28;20043;-62
2023/05/02 04:08:02;;;;;;;13.80;3.33;;;7.30;99.90;;;;;;5068618;28;20066;-61
2023/05/02 04:10:27;;;;;;;12.65;3.22;;;7.30;99.90;;;;;;5085044;28;20044;-62
2023/05/02 04:12:53;;;;;;;16.25;3.20;;;7.30;99.90;;;;;;5086030;28;20047;-62
2023/05/02 04:15:19;;;;;;;17.52;3.17;;;7.30;99.90;;;;;;5077480;28;20036;-62
2023/05/02 04:17:45;;;;;;;15.65;3.30;;;7.30;99.90;;;;;;5085567;28;20127;-64
2023/05/02 04:20:11;;;;;;;14.50;3.53;;;7.30;99.90;;;;;;5061815;28;20048;-61
2023/05/02 04:22:38;;;;;;;12.32;2.97;;;7.30;99.90;;;;;;5047888;28;20044;-60
2023/05/02 04:25:06;;;;;;;13.40;2.80;;;7.30;99.90;;;;;;5049047;28;20725;-61
2023/05/02 04:27:31;;;;;;;13.93;2.85;;;7.30;99.90;;;;;;5074570;28;20051;-61
2023/05/02 04:29:57;;;;;;;12.70;2.85;;;7.30;99.90;;;;;;5068023;28;20041;-59
2023/05/02 04:32:23;;;;;;;17.65;3.30;;;7.30;99.90;;;;;;5047678;28;20040;-62
2023/05/02 04:34:49;;;;;;;13.32;2.88;;;7.30;99.90;;;;;;5047750;28;20059;-61
2023/05/02 04:37:15;;;;;;;9.40;2.55;;;7.30;99.90;;;;;;5047950;28;20048;-62
2023/05/02 04:39:41;;;;;;;16.52;2.40;;;7.30;99.90;;;;;;5047641;28;20190;-62
2023/05/02 04:42:06;;;;;;;13.05;2.80;;;7.30;99.90;;;;;;5047904;28;20044;-60
2023/05/02 04:44:32;;;;;;;10.43;2.90;;;7.30;99.90;;;;;;5064643;28;20036;-60
2023/05/02 04:46:58;;;;;;;12.90;2.65;;;7.30;99.90;;;;;;5065030;28;20036;-60
2023/05/02 04:49:23;;;;;;;7.97;2.40;;;7.20;99.90;;;;;;5065378;28;20097;-64
2023/05/02 04:51:51;;;;;;;11.23;2.90;;;7.20;99.90;;;;;;5064020;28;20036;-64
2023/05/02 04:54:17;;;;;;;10.05;2.20;;;7.20;99.90;;;;;;5064301;28;20044;-61
2023/05/02 04:56:42;;;;;;;9.18;1.88;;;7.20;99.90;;;;;;5064246;28;20043;-62
2023/05/02 04:59:08;;;;;;;10.93;2.00;;;7.20;99.90;;;;;;5070601;28;20052;-59
2023/05/02 05:01:34;;;;;;;17.85;2.50;;;7.30;99.90;;;;;;5062853;28;20044;-66
2023/05/02 05:04:00;;;;;;;8.05;1.90;;;7.30;99.90;;;;;;5047226;28;20405;-62
2023/05/02 05:06:26;;;;;;;12.52;2.63;;;7.30;99.90;;;;;;5064143;28;20178;-63
2023/05/02 05:08:52;;;;;;;14.52;3.28;;;7.30;99.90;;;;;;5047853;28;20047;-62
2023/05/02 05:11:18;;;;;;;13.48;2.33;;;7.30;99.90;;;;;;5064058;28;20040;-62
2023/05/02 05:13:43;;;;;;;12.25;2.65;;;7.40;99.90;;;;;;5065444;28;20045;-62
2023/05/02 05:16:09;;;;;;;14.40;2.88;;;7.30;99.90;;;;;;5056430;28;20527;-62
2023/05/02 05:18:39;;;;;;;13.90;3.30;;;7.30;99.90;;;;;;5066937;28;20067;-63
2023/05/02 05:21:09;;;;;;;16.48;3.58;;;7.40;99.90;;;;;;5074349;28;20044;-63
2023/05/02 05:23:36;;;;;;;12.65;2.50;;;7.30;99.90;;;;;;5067118;28;20049;-64
2023/05/02 05:26:09;;;;;;;17.90;3.28;;;7.30;99.90;;;;;;5068704;28;20510;-62
2023/05/02 05:28:35;;;;;;;13.07;3.60;;;7.30;99.90;;;;;;5084144;28;20048;-62
2023/05/02 05:31:12;;;;;;;15.35;3.35;;;7.30;99.90;;;;;;5053666;28;20044;-62
2023/05/02 05:33:38;;;;;;;16.23;3.15;;;7.30;99.90;;;;;;5046958;28;20052;-62
2023/05/02 05:36:06;;;;;;;15.27;3.70;;;7.30;99.90;;;;;;5065400;28;20274;-61
2023/05/02 05:38:32;;;;;;;13.70;3.67;;;7.30;99.90;;;;;;5054316;28;20128;-61
2023/05/02 05:40:57;;;;;;;13.70;3.67;;;7.30;99.90;;;;;;5085357;28;20304;-62
2023/05/02 05:43:23;;;;;;;19.40;3.75;;;7.30;99.90;;;;;;5051362;28;20041;-62
2023/05/02 05:45:52;;;;;;;19.67;3.58;;;7.30;99.90;;;;;;5062620;28;20029;-62
2023/05/02 05:48:18;;;;;;;14.00;3.50;;;7.30;99.90;;;;;;5063899;28;20520;-63
2023/05/02 05:50:43;;;;;;;18.40;3.47;;;7.30;99.90;;;;;;5029351;28;20215;-61
2023/05/02 05:53:09;;;;;;;13.07;3.53;;;7.30;99.90;;;;;;5063585;28;20071;-62
2023/05/02 05:55:36;;;;;;;19.70;3.95;;;7.30;99.90;;;;;;5072761;28;20048;-62
2023/05/02 05:58:03;;;;;;;18.15;3.67;;;7.30;99.90;;;;;;5083920;28;20067;-62
2023/05/02 06:00:28;;;;;;;14.85;3.35;;;7.30;99.90;;;;;;5067528;28;20036;-61
2023/05/02 06:02:54;;;;;;;14.82;3.72;;;7.30;99.90;;;;;;5046608;28;20056;-61
2023/05/02 06:05:20;;;;;;;17.88;3.80;;;7.30;99.90;;;;;;5046848;28;20052;-62
2023/05/02 06:07:46;;;;;;;18.02;3.65;;;7.40;99.90;;;;;;5072513;28;20044;-62
2023/05/02 06:10:11;;;;;;;18.33;3.45;;;7.40;99.90;;;;;;5049932;28;20036;-62
2023/05/02 06:12:37;;;;;;;12.63;3.45;;;7.40;99.90;;;;;;5066929;28;20052;-60
2023/05/02 06:15:03;;;;;;;12.82;3.22;;;7.40;99.90;;;;;;5071128;28;20049;-60
2023/05/02 06:17:29;;;;;;;19.23;4.28;;;7.40;99.90;;;;;;5062868;28;20056;-60
2023/05/02 06:19:54;;;;;;;14.65;3.63;;;7.50;99.90;;;;;;5048230;28;20048;-60
2023/05/02 06:22:20;;;;;;;18.10;3.78;;;7.50;99.90;;;;;;5063165;28;20094;-61
2023/05/02 06:24:46;;;;;;;15.00;3.35;;;7.50;99.90;;;;;;5063520;28;20032;-60
2023/05/02 06:27:12;;;;;;;16.08;3.55;;;7.60;99.90;;;;;;5082488;28;20044;-62
2023/05/02 06:29:37;;;;;;;12.48;3.13;;;7.60;99.90;;;;;;5049403;28;20051;-60
2023/05/02 06:32:03;;;;;;;11.75;3.40;;;7.60;99.90;;;;;;5080860;28;20054;-62
2023/05/02 06:34:32;;;;;;;12.85;3.38;;;7.70;99.90;;;;;;5066115;28;20055;-60
2023/05/02 06:36:58;;;;;;;15.88;4.05;;;7.70;99.90;;;;;;5063532;28;20052;-61
2023/05/02 06:39:24;;;;;;;16.08;3.60;;;7.80;99.90;;;;;;5062797;28;20044;-62
2023/05/02 06:41:50;;;;;;;16.27;3.45;;;7.90;99.90;;;;;;5046370;28;20036;-62
2023/05/02 06:44:16;;;;;;;17.20;3.80;;;7.90;99.90;;;;;;5067210;28;20119;-62
2023/05/02 06:46:42;;;;;;;16.70;3.60;;;7.90;99.90;;;;;;5076514;28;20187;-61
2023/05/02 06:49:07;;;;;;;16.17;3.70;;;7.90;99.90;;;;;;5069630;28;20310;-62
2023/05/02 06:51:33;;;;;;;13.90;3.13;;;7.90;99.90;;;;;;5086380;28;20070;-63
2023/05/02 06:53:59;;;;;;;12.20;3.40;;;7.90;99.90;;;;;;5084369;28;20124;-64
2023/05/02 06:56:25;;;;;;;14.77;3.70;;;7.90;99.50;;;;;;5071681;28;20115;-60
2023/05/02 06:58:51;;;;;;;13.55;3.50;;;7.90;99.70;;;;;;5066454;28;20049;-61
2023/05/02 07:01:17;;;;;;;12.05;3.63;;;8.00;99.30;;;;;;5065436;28;20037;-62
2023/05/02 07:03:45;;;;;;;11.77;3.30;;;8.00;99.50;;;;;;5066564;28;20056;-63
2023/05/02 07:06:11;;;;;;;19.70;3.78;;;8.10;98.60;;;;;;5066463;28;20070;-61
2023/05/02 07:08:37;;;;;;;12.10;3.00;;;8.10;99.10;;;;;;5071587;28;20040;-63
2023/05/02 07:11:03;;;;;;;16.98;3.88;;;8.20;99.40;;;;;;5051728;28;20048;-63
2023/05/02 07:13:29;;;;;;;15.90;3.90;;;8.30;98.80;;;;;;5063736;28;20163;-61
2023/05/02 07:15:55;;;;;;;19.27;3.72;;;8.50;98.90;;;;;;5032571;28;20072;-64
2023/05/02 07:18:21;;;;;;;18.13;3.20;;;8.70;98.30;;;;;;5061824;28;20051;-63
2023/05/02 07:20:47;;;;;;;14.32;3.28;;;9.00;97.50;;;;;;5070632;28;20048;-61
2023/05/02 07:23:13;;;;;;;16.48;3.28;;;9.20;96.40;;;;;;5050271;28;20450;-63
2023/05/02 07:25:38;;;;;;;16.08;3.83;;;9.30;96.30;;;;;;5084733;28;20051;-62
2023/05/02 07:28:05;;;;;;;16.60;3.30;;;9.30;96.20;;;;;;5066584;28;20052;-63
2023/05/02 07:30:31;;;;;;;8.82;2.88;;;9.40;95.60;;;;;;5067580;28;20028;-64
2023/05/02 07:32:56;;;;;;;13.57;3.55;;;9.40;95.40;;;;;;5056332;28;20502;-62
2023/05/02 07:35:22;;;;;;;17.13;3.50;;;9.30;95.00;;;;;;5056303;28;20047;-63
2023/05/02 07:37:48;;;;;;;12.02;3.28;;;9.30;95.20;;;;;;5073250;28;20047;-60
2023/05/02 07:40:14;;;;;;;16.90;3.40;;;9.30;95.10;;;;;;5075743;28;20043;-61
2023/05/02 07:42:40;;;;;;;13.70;2.78;;;9.40;95.20;;;;;;5064295;28;20539;-59
2023/05/02 07:45:06;;;;;;;12.80;3.17;;;9.50;94.90;;;;;;5058686;28;20609;-63
2023/05/02 07:47:32;;;;;;;12.25;3.55;;;9.40;95.30;;;;;;5056750;28;20602;-61
2023/05/02 07:49:58;;;;;;;12.77;2.85;;;9.50;95.30;;;;;;5070498;28;20123;-59
2023/05/02 07:52:25;;;;;;;15.07;3.35;;;9.50;95.20;;;;;;5048661;28;20171;-60
2023/05/02 07:54:51;;;;;;;11.80;3.30;;;9.40;95.00;;;;;;5072287;28;20062;-61
2023/05/02 07:57:17;;;;;;;15.25;3.25;;;9.40;95.10;;;;;;5084644;28;20491;-63
2023/05/02 07:59:43;;;;;;;15.63;3.40;;;9.30;95.00;;;;;;5078131;28;20063;-65
2023/05/02 08:02:11;;;;;;;12.65;3.45;;;9.20;95.20;;;;;;5046576;28;20053;-62
2023/05/02 08:04:38;;;;;;;15.07;3.65;;;9.20;95.30;;;;;;5065107;28;20048;-64
2023/05/02 08:07:04;;;;;;;14.35;3.47;;;9.20;95.60;;;;;;5047852;28;20256;-62
2023/05/02 08:09:30;;;;;;;17.33;3.40;;;9.20;95.50;;;;;;5048332;28;20040;-61
2023/05/02 08:11:55;;;;;;;13.05;2.95;;;9.20;95.20;;;;;;5066429;28;20509;-62
2023/05/02 08:14:21;;;;;;;16.27;3.30;;;9.10;95.30;;;;;;5071795;28;20758;-62
2023/05/02 08:16:47;;;;;;;10.80;2.95;;;9.20;95.60;;;;;;5058086;28;20524;-64
2023/05/02 08:19:14;;;;;;;13.00;3.50;;;9.20;96.00;;;;;;5048857;28;20048;-64
2023/05/02 08:21:40;;;;;;;12.98;3.35;;;9.40;96.40;;;;;;5055332;28;20059;-64
2023/05/02 08:24:05;;;;;;;13.50;3.30;;;9.70;97.10;;;;;;5065013;28;20036;-61
2023/05/02 08:26:31;;;;;;;13.63;2.80;;;10.00;96.50;;;;;;5068044;28;20037;-62
2023/05/02 08:28:57;;;;;;;9.50;2.53;;;10.20;96.00;;;;;;5085283;28;20678;-63
2023/05/02 08:31:23;;;;;;;9.50;2.10;;;10.30;95.30;;;;;;5057296;28;20114;-60
2023/05/02 08:33:49;;;;;;;9.77;2.60;;;10.40;94.90;;;;;;5085218;28;20410;-63
2023/05/02 08:36:16;;;;;;;11.27;2.55;;;10.50;95.10;;;;;;5063558;28;20385;-61
2023/05/02 08:38:43;;;;;;;9.82;2.13;;;10.60;94.90;;;;;;5048173;28;20044;-62
2023/05/02 08:41:16;;;;;;;6.45;1.70;;;10.80;94.70;;;;;;5065567;28;20036;-63
2023/05/02 08:43:43;;;;;;;8.67;1.93;;;10.70;93.80;;;;;;5048298;28;20048;-61
2023/05/02 08:46:11;;;;;;;9.45;2.00;;;10.60;93.70;;;;;;5048068;28;20052;-61
2023/05/02 08:48:39;;;;;;;8.73;1.67;;;10.60;93.80;;;;;;5064539;28;20126;-62
2023/05/02 08:51:12;;;;;;;6.50;1.58;;;10.60;93.30;;;;;;5064037;28;20495;-63
2023/05/02 08:53:39;;;;;;;7.40;1.67;;;10.50;92.50;;;;;;5065522;28;20048;-62
2023/05/02 08:56:09;;;;;;;7.43;1.63;;;10.50;92.60;;;;;;5064362;28;20512;-63
2023/05/02 08:58:37;;;;;;;8.07;1.77;;;10.60;92.40;;;;;;5047506;28;20061;-63
2023/05/02 09:01:11;;;;;;;10.25;2.03;;;10.70;91.90;;;;;;5065677;28;20393;-61
2023/05/02 09:03:36;;;;;;;4.43;1.30;;;11.00;91.30;;;;;;5065575;28;20052;-61
2023/05/02 09:06:19;;;;;;;6.57;1.45;;;11.10;90.40;;;;;;5047542;28;20033;-62
2023/05/02 09:08:48;;;;;;;11.57;1.70;;;11.20;90.50;;;;;;5047553;28;20044;-62
2023/05/02 09:11:15;;;;;;;7.65;1.90;;;11.30;91.00;;;;;;5031373;28;20489;-58
2023/05/02 09:13:51;;;;;;;10.52;1.70;;;11.30;90.30;;;;;;5080718;28;20048;-60
2023/05/02 09:16:22;;;;;;;6.15;1.90;;;11.20;86.90;;;;;;5064652;28;20044;-61
2023/05/02 09:18:50;;;;;;;7.43;2.33;;;11.00;89.90;;;;;;5064521;28;20392;-61
2023/05/02 09:21:20;;;;;;;9.80;1.65;;;11.00;90.30;;;;;;5047545;28;20051;-62
2023/05/02 09:23:51;;;;;;;6.93;1.80;;;11.00;89.30;;;;;;5066989;28;20066;-65
2023/05/02 09:26:22;;;;;;;5.13;1.75;;;11.00;90.40;;;;;;5077154;28;20075;-64
2023/05/02 09:28:54;;;;;;;10.93;1.70;;;10.90;90.00;;;;;;5064026;28;20098;-62
2023/05/02 09:31:24;;;;;;;9.52;1.70;;;10.90;89.40;;;;;;5074032;28;20115;-63
2023/05/02 09:33:51;;;;;;;9.15;1.83;;;10.90;90.10;;;;;;5064832;28;20043;-64
2023/05/02 09:36:19;;;;;;;6.88;2.03;;;10.90;90.00;;;;;;5046411;28;20052;-64
2023/05/02 09:38:48;;;;;;;14.88;1.77;;;10.90;90.60;;;;;;5073102;28;20130;-64
2023/05/02 09:41:14;;;;;;;6.68;1.65;;;11.00;90.70;;;;;;5083856;28;20039;-62
2023/05/02 09:43:40;;;;;;;5.90;1.60;;;11.00;90.70;;;;;;5077474;28;20498;-64
2023/05/02 09:46:10;;;;;;;6.20;1.60;;;11.00;90.80;;;;;;5064176;28;20235;-63
2023/05/02 09:48:52;;;;;;;8.27;1.70;;;11.00;90.90;;;;;;5063448;28;20036;-61
2023/05/02 09:51:19;;;;;;;10.63;2.22;;;10.90;90.30;;;;;;5062933;28;20523;-61
2023/05/02 09:53:45;;;;;;;12.20;1.98;;;10.80;90.80;;;;;;5064882;28;20642;-62
2023/05/02 09:56:11;;;;;;;8.93;1.63;;;10.80;91.90;;;;;;5064886;28;20102;-61
2023/05/02 09:58:37;;;;;;;8.05;1.90;;;10.70;92.60;;;;;;5063625;28;20833;-61
2023/05/02 10:01:03;;;;;;;6.82;1.88;;;10.60;93.60;;;;;;5066553;28;20135;-63
2023/05/02 10:03:30;;;;;;;7.25;1.70;;;10.40;94.00;;;;;;5063383;28;20071;-62
2023/05/02 10:05:57;;;;;;;12.57;2.10;;;10.30;94.00;;;;;;5046815;28;20048;-63
2023/05/02 10:08:27;;;;;;;11.25;1.90;;;10.30;94.40;;;;;;5046560;28;20567;-62
2023/05/02 10:10:58;;;;;;;12.98;2.13;;;10.40;94.40;;;;;;5046467;28;20613;-64
2023/05/02 10:13:31;;;;;;;7.63;1.40;;;10.60;94.40;;;;;;5063655;28;20109;-62
2023/05/02 10:16:02;;;;;;;7.90;1.53;;;10.80;94.40;;;;;;5062824;28;20036;-63
2023/05/02 10:19:05;;;;;;;7.50;1.45;;;10.90;94.20;;;;;;5063495;28;20565;-63
2023/05/02 10:21:32;;;;;;;9.32;1.50;;;11.10;93.00;;;;;;5051953;28;20492;-63
2023/05/02 10:24:02;;;;;;;5.53;1.45;;;11.40;92.90;;;;;;5070813;28;20706;-63
2023/05/02 10:26:28;;;;;;;9.43;1.65;;;11.80;92.20;;;;;;5073929;28;20045;-62
2023/05/02 10:28:55;;;;;;;7.53;1.90;;;12.00;91.70;;;;;;5068246;28;20484;-62
2023/05/02 10:31:21;;;;;;;14.25;1.90;;;11.90;91.80;;;;;;5067351;28;20710;-62
2023/05/02 10:33:51;;;;;;;6.70;1.60;;;11.60;91.90;;;;;;5076286;28;20058;-61
2023/05/02 10:36:21;;;;;;;7.80;1.73;;;11.40;92.30;;;;;;5088257;28;20055;-63
2023/05/02 10:38:47;;;;;;;7.63;1.73;;;11.10;92.60;;;;;;5082826;28;20052;-61
2023/05/02 10:41:21;;;;;;;10.07;2.08;;;10.90;92.80;;;;;;5066819;28;20496;-61
2023/05/02 10:43:48;;;;;;;6.18;1.70;;;10.70;93.10;;;;;;5066849;28;20071;-62
2023/05/02 10:46:33;;;;;;;7.18;1.65;;;10.70;93.70;;;;;;5069481;28;20047;-62
2023/05/02 10:49:07;;;;;;;7.20;1.90;;;10.70;93.70;;;;;;5067857;28;20101;-63
2023/05/02 10:51:35;;;;;;;8.10;1.88;;;10.80;93.90;;;;;;5050524;28;20044;-62
2023/05/02 10:54:16;;;;;;;6.38;1.60;;;11.00;93.30;;;;;;5066640;28;20043;-61
2023/05/02 10:57:04;;;;;;;9.30;1.90;;;11.10;93.40;;;;;;5066898;28;20546;-61
2023/05/02 10:59:35;;;;;;;11.25;2.05;;;11.10;93.50;;;;;;5053319;28;20543;-62
2023/05/02 11:02:01;;;;;;;6.40;1.80;;;11.10;94.00;;;;;;5064420;28;20040;-62
2023/05/02 11:05:02;;;;;;;7.47;1.80;;;11.00;94.10;;;;;;5086784;28;20055;-62
2023/05/02 11:07:30;;;;;;;11.00;1.83;;;11.00;94.40;;;;;;5050861;28;20046;-62
2023/05/02 11:10:14;;;;;;;7.03;1.90;;;11.00;94.30;;;;;;5066585;28;20667;-61
2023/05/02 11:12:46;;;;;;;7.22;1.77;;;11.30;93.90;;;;;;5066676;28;20048;-61
2023/05/02 11:15:12;;;;;;;7.78;1.70;;;11.60;94.00;;;;;;5066016;28;20051;-61
2023/05/02 11:18:06;;;;;;;10.30;1.60;;;11.80;93.30;;;;;;5048701;28;20052;-62
2023/05/02 11:20:32;;;;;;;8.13;1.80;;;11.80;92.60;;;;;;5067444;28;20044;-60
2023/05/02 11:23:14;;;;;;;10.68;1.88;;;11.40;93.50;;;;;;5076232;28;20418;-60
2023/05/02 11:25:46;;;;;;;14.45;2.00;;;11.10;94.30;;;;;;5081054;28;20114;-63
2023/05/02 11:28:49;;;;;;;10.45;2.30;;;10.80;95.00;;;;;;5086236;28;20044;-61
2023/05/02 11:31:27;;;;;;;10.80;1.98;;;10.60;95.80;;;;;;5067172;28;20036;-61
2023/05/02 11:33:59;;;;;;;9.77;1.83;;;10.40;96.50;;;;;;5066150;28;20044;-62
2023/05/02 11:36:32;;;;;;;7.10;2.05;;;10.30;97.20;;;;;;5065942;28;20044;-62
2023/05/02 11:39:00;;;;;;;8.95;2.03;;;10.40;97.60;;;;;;5074218;28;20126;-63
2023/05/02 11:41:38;;;;;;;6.75;1.73;;;10.60;98.00;;;;;;5086232;28;20117;-64
2023/05/02 11:44:04;;;;;;;13.93;2.20;;;10.90;97.80;;;;;;5064930;28;20109;-63
2023/05/02 11:46:30;;;;;;;7.72;1.95;;;11.30;97.20;;;;;;5047911;28;20048;-64
2023/05/02 11:48:56;;;;;;;6.18;1.85;;;11.70;96.30;;;;;;5049315;28;20676;-63
2023/05/02 11:51:22;;;;;;;7.63;2.20;;;12.10;95.80;;;;;;5066478;28;20091;-64
2023/05/02 11:53:48;;;;;;;6.40;1.83;;;12.50;95.20;;;;;;5065716;28;20121;-63
2023/05/02 11:56:15;;;;;;;8.77;1.67;;;12.60;94.70;;;;;;5049538;28;20048;-63
2023/05/02 11:58:42;;;;;;;6.15;1.33;;;12.40;93.90;;;;;;5065389;28;20096;-62
2023/05/02 12:01:13;;;;;;;10.43;1.48;;;12.10;93.80;;;;;;5063579;28;20474;-61
2023/05/02 12:03:39;;;;;;;7.00;1.30;;;11.90;93.90;;;;;;5066300;28;20044;-60
2023/05/02 12:06:13;;;;;;;9.15;1.35;;;11.60;94.10;;;;;;5048854;28;20036;-64
2023/05/02 12:08:40;;;;;;;7.72;1.40;;;11.40;94.30;;;;;;5065778;28;20230;-62
2023/05/02 12:11:06;;;;;;;8.00;1.60;;;11.30;94.00;;;;;;5064910;28;20036;-61
2023/05/02 12:13:32;;;;;;;4.60;1.30;;;11.20;94.10;;;;;;5049035;28;20102;-62
2023/05/02 12:15:58;;;;;;;7.22;1.55;;;11.20;93.90;;;;;;5070790;28;20044;-61
2023/05/02 12:18:25;;;;;;;4.78;1.25;;;11.30;94.00;;;;;;5084724;28;20056;-61
2023/05/02 12:20:53;;;;;;;8.23;1.50;;;11.40;93.90;;;;;;5084959;28;20086;-64
2023/05/02 12:23:22;;;;;;;7.07;1.30;;;11.80;94.20;;;;;;5072004;28;20048;-61
2023/05/02 12:25:48;;;;;;;6.22;1.27;;;12.10;92.70;;;;;;5067205;28;20044;-61
2023/05/02 12:28:15;;;;;;;9.20;1.15;;;12.30;91.90;;;;;;5068325;28;20539;-63
2023/05/02 12:30:41;;;;;;;7.47;1.17;;;12.50;92.00;;;;;;5060685;28;20032;-64
2023/05/02 12:33:07;;;;;;;4.00;1.00;;;12.80;91.70;;;;;;5051942;28;20047;-62
2023/05/02 12:35:35;;;;;;;4.68;1.10;;;13.00;90.70;;;;;;5058621;28;20157;-63
2023/05/02 12:38:19;;;;;;;3.95;1.00;;;13.10;90.20;;;;;;5064520;28;20522;-62
2023/05/02 12:40:56;;;;;;;2.65;1.00;;;13.30;87.80;;;;;;5064729;28;20587;-63
2023/05/02 12:43:22;;;;;;;3.92;1.00;;;13.30;87.40;;;;;;5064089;28;20048;-60
2023/05/02 12:45:49;;;;;;;3.35;0.90;;;13.30;86.30;;;;;;5030855;28;20083;-61
2023/05/02 12:48:26;;;;;;;6.85;1.17;;;13.10;85.20;;;;;;5064714;28;20101;-62
2023/05/02 12:50:53;;;;;;;4.63;1.08;;;13.10;84.20;;;;;;5047827;28;20123;-60
2023/05/02 12:53:39;;;;;;;3.67;0.82;;;13.10;83.90;;;;;;5065264;28;20110;-61
2023/05/02 12:56:05;;;;;;;5.13;1.00;;;13.10;82.90;;;;;;5048329;28;20043;-61